Bradford, Illinois
Current Conditions -  °F | °C
As of 1:35 AM on Saturday 29 Nov 2014 (Local Time) from KC75 Reporting Station
Clear Clear  
Wind Chill: 28°   Ceiling: Unl
Heat Index: 35°   Visibility: 10mi
Dew Point: 31°   Wind: 8mph
Humidity: 85%   Direction: 160°SSE
Pressure: 29.79"   Gusts: NA
Location:  41.18°N, 89.66°W
Report Text: KC75 290735Z AUTO 16007KT 10SM CLR 02/M01 A2979 RMK AO2 T00151007
Loading
Personal Weather Stations






























Interactive Weather Map New forecast layout! Learn more

10-Day Weather Forecast

Advertisements
Track Severe Weather on mobile